sensor_id;sensor_type;location;lat;lon;timestamp;pressure;altitude;pressure_sealevel;temperature;humidity
56420;BME280;42323;52.170;7.538;2023-06-10T00:00:19;101121.84;;;20.42;nan
56420;BME280;42323;52.170;7.538;2023-06-10T00:02:47;101113.50;;;20.39;nan
56420;BME280;42323;52.170;7.538;2023-06-10T00:05:13;101105.03;;;20.30;nan
56420;BME280;42323;52.170;7.538;2023-06-10T00:07:41;101115.19;;;20.33;nan
56420;BME280;42323;52.170;7.538;2023-06-10T00:10:08;101123.28;;;20.26;nan
56420;BME280;42323;52.170;7.538;2023-06-10T00:12:36;101124.47;;;20.30;nan
56420;BME280;42323;52.170;7.538;2023-06-10T00:15:05;101123.03;;;20.16;nan
56420;BME280;42323;52.170;7.538;2023-06-10T00:17:32;101131.84;;;20.17;nan
56420;BME280;42323;52.170;7.538;2023-06-10T00:19:59;101129.63;;;20.14;nan
56420;BME280;42323;52.170;7.538;2023-06-10T00:22:26;101132.16;;;20.09;nan
56420;BME280;42323;52.170;7.538;2023-06-10T00:24:55;101127.97;;;20.01;nan
56420;BME280;42323;52.170;7.538;2023-06-10T00:27:25;101129.00;;;20.00;nan
56420;BME280;42323;52.170;7.538;2023-06-10T00:29:57;101127.47;;;19.92;nan
56420;BME280;42323;52.170;7.538;2023-06-10T00:32:24;101122.03;;;19.87;nan
56420;BME280;42323;52.170;7.538;2023-06-10T00:34:50;101137.50;;;19.90;nan
56420;BME280;42323;52.170;7.538;2023-06-10T00:37:17;101129.03;;;19.82;nan
56420;BME280;42323;52.170;7.538;2023-06-10T00:39:44;101116.88;;;19.74;nan
56420;BME280;42323;52.170;7.538;2023-06-10T00:42:11;101125.22;;;19.77;nan
56420;BME280;42323;52.170;7.538;2023-06-10T00:44:37;101110.00;;;19.66;nan
56420;BME280;42323;52.170;7.538;2023-06-10T00:47:05;101099.28;;;19.54;nan
56420;BME280;42323;52.170;7.538;2023-06-10T00:49:33;101130.84;;;19.69;nan
56420;BME280;42323;52.170;7.538;2023-06-10T00:52:00;101133.56;;;19.63;nan
56420;BME280;42323;52.170;7.538;2023-06-10T00:54:27;101128.09;;;19.58;nan
56420;BME280;42323;52.170;7.538;2023-06-10T00:56:54;101131.41;;;19.53;nan
56420;BME280;42323;52.170;7.538;2023-06-10T00:59:22;101129.88;;;19.45;nan
56420;BME280;42323;52.170;7.538;2023-06-10T01:01:48;101129.72;;;19.40;nan
56420;BME280;42323;52.170;7.538;2023-06-10T01:04:15;101132.25;;;19.35;nan
56420;BME280;42323;52.170;7.538;2023-06-10T01:15:22;101129.91;;;19.02;nan
56420;BME280;42323;52.170;7.538;2023-06-10T01:18:03;101135.22;;;19.02;nan
56420;BME280;42323;52.170;7.538;2023-06-10T01:20:31;101140.78;;;19.00;nan
56420;BME280;42323;52.170;7.538;2023-06-10T01:23:00;101139.78;;;18.95;nan
56420;BME280;42323;52.170;7.538;2023-06-10T01:25:27;101138.97;;;18.94;nan
56420;BME280;42323;52.170;7.538;2023-06-10T01:30:28;101153.53;;;18.92;nan
56420;BME280;42323;52.170;7.538;2023-06-10T01:32:59;101149.44;;;18.89;nan
56420;BME280;42323;52.170;7.538;2023-06-10T01:35:27;101156.59;;;18.89;nan
56420;BME280;42323;52.170;7.538;2023-06-10T01:37:56;101147.06;;;18.81;nan
56420;BME280;42323;52.170;7.538;2023-06-10T01:40:25;101152.22;;;18.76;nan
56420;BME280;42323;52.170;7.538;2023-06-10T01:42:52;101157.75;;;18.74;nan
56420;BME280;42323;52.170;7.538;2023-06-10T01:45:18;101160.19;;;18.76;nan
56420;BME280;42323;52.170;7.538;2023-06-10T01:47:45;101162.47;;;18.72;nan
56420;BME280;42323;52.170;7.538;2023-06-10T01:50:12;101162.03;;;18.69;nan
56420;BME280;42323;52.170;7.538;2023-06-10T01:52:38;101159.84;;;18.66;nan
56420;BME280;42323;52.170;7.538;2023-06-10T01:55:05;101159.50;;;18.55;nan
56420;BME280;42323;52.170;7.538;2023-06-10T01:57:32;101160.94;;;18.51;nan
56420;BME280;42323;52.170;7.538;2023-06-10T01:59:59;101160.56;;;18.48;nan
56420;BME280;42323;52.170;7.538;2023-06-10T02:02:25;101169.94;;;18.50;nan
56420;BME280;42323;52.170;7.538;2023-06-10T02:04:52;101172.84;;;18.42;nan
56420;BME280;42323;52.170;7.538;2023-06-10T02:07:18;101172.53;;;18.32;nan
56420;BME280;42323;52.170;7.538;2023-06-10T02:09:45;101170.44;;;18.34;nan
56420;BME280;42323;52.170;7.538;2023-06-10T02:12:14;101174.13;;;18.33;nan
56420;BME280;42323;52.170;7.538;2023-06-10T02:14:43;101166.25;;;18.26;nan
56420;BME280;42323;52.170;7.538;2023-06-10T02:17:10;101154.03;;;18.19;nan
56420;BME280;42323;52.170;7.538;2023-06-10T02:19:39;101165.69;;;18.18;nan
56420;BME280;42323;52.170;7.538;2023-06-10T02:22:09;101173.63;;;18.18;nan
56420;BME280;42323;52.170;7.538;2023-06-10T02:24:36;101172.03;;;18.10;nan
56420;BME280;42323;52.170;7.538;2023-06-10T02:27:05;101176.94;;;18.07;nan
56420;BME280;42323;52.170;7.538;2023-06-10T02:29:34;101184.69;;;18.08;nan
56420;BME280;42323;52.170;7.538;2023-06-10T02:32:02;101181.03;;;18.02;nan
56420;BME280;42323;52.170;7.538;2023-06-10T02:34:29;101184.09;;;17.99;nan
56420;BME280;42323;52.170;7.538;2023-06-10T02:36:56;101178.00;;;17.99;nan
56420;BME280;42323;52.170;7.538;2023-06-10T02:39:22;101182.50;;;17.98;nan
56420;BME280;42323;52.170;7.538;2023-06-10T02:41:49;101180.69;;;17.92;nan
56420;BME280;42323;52.170;7.538;2023-06-10T02:44:17;101179.03;;;17.91;nan
56420;BME280;42323;52.170;7.538;2023-06-10T02:46:44;101169.88;;;17.87;nan
56420;BME280;42323;52.170;7.538;2023-06-10T02:49:11;101165.22;;;17.83;nan
56420;BME280;42323;52.170;7.538;2023-06-10T02:51:38;101170.56;;;17.76;nan
56420;BME280;42323;52.170;7.538;2023-06-10T02:54:05;101180.34;;;17.75;nan
56420;BME280;42323;52.170;7.538;2023-06-10T02:56:32;101160.63;;;17.51;nan
56420;BME280;42323;52.170;7.538;2023-06-10T02:58:59;101166.94;;;17.50;nan
56420;BME280;42323;52.170;7.538;2023-06-10T03:01:26;101182.22;;;17.48;nan
56420;BME280;42323;52.170;7.538;2023-06-10T03:03:53;101179.78;;;17.47;nan
56420;BME280;42323;52.170;7.538;2023-06-10T03:06:19;101172.25;;;17.44;nan
56420;BME280;42323;52.170;7.538;2023-06-10T03:08:46;101181.44;;;17.41;nan
56420;BME280;42323;52.170;7.538;2023-06-10T03:11:13;101167.38;;;17.34;nan
56420;BME280;42323;52.170;7.538;2023-06-10T03:13:39;101171.25;;;17.38;nan
56420;BME280;42323;52.170;7.538;2023-06-10T03:16:06;101187.72;;;17.47;nan
56420;BME280;42323;52.170;7.538;2023-06-10T03:18:34;101177.75;;;17.42;nan
56420;BME280;42323;52.170;7.538;2023-06-10T03:21:00;101183.47;;;17.39;nan
56420;BME280;42323;52.170;7.538;2023-06-10T03:23:27;101170.88;;;17.28;nan
56420;BME280;42323;52.170;7.538;2023-06-10T03:25:54;101190.19;;;17.35;nan
56420;BME280;42323;52.170;7.538;2023-06-10T03:28:21;101186.34;;;17.31;nan
56420;BME280;42323;52.170;7.538;2023-06-10T03:30:48;101174.53;;;17.20;nan
56420;BME280;42323;52.170;7.538;2023-06-10T03:33:14;101178.19;;;17.26;nan
56420;BME280;42323;52.170;7.538;2023-06-10T03:35:41;101186.34;;;17.24;nan
56420;BME280;42323;52.170;7.538;2023-06-10T03:38:08;101156.66;;;17.02;nan
56420;BME280;42323;52.170;7.538;2023-06-10T03:40:34;101187.97;;;17.25;nan
56420;BME280;42323;52.170;7.538;2023-06-10T03:43:01;101197.16;;;17.29;nan
56420;BME280;42323;52.170;7.538;2023-06-10T03:45:27;101189.41;;;17.28;nan
56420;BME280;42323;52.170;7.538;2023-06-10T03:47:55;101201.22;;;17.32;nan
56420;BME280;42323;52.170;7.538;2023-06-10T03:50:23;101196.94;;;17.24;nan
56420;BME280;42323;52.170;7.538;2023-06-10T03:52:50;101201.63;;;17.29;nan
56420;BME280;42323;52.170;7.538;2023-06-10T03:55:17;101206.72;;;17.30;nan
56420;BME280;42323;52.170;7.538;2023-06-10T03:57:43;101194.50;;;17.16;nan
56420;BME280;42323;52.170;7.538;2023-06-10T04:00:10;101178.41;;;17.18;nan
56420;BME280;42323;52.170;7.538;2023-06-10T04:02:38;101197.97;;;17.17;nan
56420;BME280;42323;52.170;7.538;2023-06-10T04:05:13;101193.69;;;17.16;nan
56420;BME280;42323;52.170;7.538;2023-06-10T04:07:40;101208.94;;;17.27;nan
56420;BME280;42323;52.170;7.538;2023-06-10T04:10:09;101197.56;;;17.20;nan
56420;BME280;42323;52.170;7.538;2023-06-10T04:12:37;101200.19;;;17.26;nan
56420;BME280;42323;52.170;7.538;2023-06-10T04:15:04;101194.31;;;17.24;nan
56420;BME280;42323;52.170;7.538;2023-06-10T04:17:31;101211.59;;;17.34;nan
56420;BME280;42323;52.170;7.538;2023-06-10T04:19:58;101210.59;;;17.35;nan
56420;BME280;42323;52.170;7.538;2023-06-10T04:22:24;101200.00;;;17.28;nan
56420;BME280;42323;52.170;7.538;2023-06-10T04:24:51;101195.72;;;17.27;nan
56420;BME280;42323;52.170;7.538;2023-06-10T04:27:18;101203.06;;;17.32;nan
56420;BME280;42323;52.170;7.538;2023-06-10T04:29:45;101205.28;;;17.35;nan
56420;BME280;42323;52.170;7.538;2023-06-10T04:32:11;101203.84;;;17.39;nan
56420;BME280;42323;52.170;7.538;2023-06-10T04:34:38;101209.97;;;17.39;nan
56420;BME280;42323;52.170;7.538;2023-06-10T04:37:11;101192.66;;;17.30;nan
56420;BME280;42323;52.170;7.538;2023-06-10T04:39:37;101218.72;;;17.46;nan
56420;BME280;42323;52.170;7.538;2023-06-10T04:42:05;101213.00;;;17.43;nan
56420;BME280;42323;52.170;7.538;2023-06-10T04:44:32;101200.19;;;17.33;nan
56420;BME280;42323;52.170;7.538;2023-06-10T04:46:58;101207.31;;;17.46;nan
56420;BME280;42323;52.170;7.538;2023-06-10T04:49:25;101192.66;;;17.30;nan
56420;BME280;42323;52.170;7.538;2023-06-10T04:51:52;101198.34;;;17.34;nan
56420;BME280;42323;52.170;7.538;2023-06-10T04:54:18;101219.53;;;17.53;nan
56420;BME280;42323;52.170;7.538;2023-06-10T04:56:45;101215.66;;;17.49;nan
56420;BME280;42323;52.170;7.538;2023-06-10T04:59:13;101212.78;;;17.51;nan
56420;BME280;42323;52.170;7.538;2023-06-10T05:01:41;101206.69;;;17.44;nan
56420;BME280;42323;52.170;7.538;2023-06-10T05:04:08;101216.25;;;17.51;nan
56420;BME280;42323;52.170;7.538;2023-06-10T05:06:34;101201.78;;;17.47;nan
56420;BME280;42323;52.170;7.538;2023-06-10T05:09:02;101221.97;;;17.55;nan
56420;BME280;42323;52.170;7.538;2023-06-10T05:11:29;101221.16;;;17.54;nan
56420;BME280;42323;52.170;7.538;2023-06-10T05:13:56;101224.84;;;17.53;nan
56420;BME280;42323;52.170;7.538;2023-06-10T05:16:22;101214.59;;;17.57;nan
56420;BME280;42323;52.170;7.538;2023-06-10T05:18:49;101220.31;;;17.61;nan
56420;BME280;42323;52.170;7.538;2023-06-10T05:21:17;101199.78;;;17.49;nan
56420;BME280;42323;52.170;7.538;2023-06-10T05:23:44;101212.16;;;17.62;nan
56420;BME280;42323;52.170;7.538;2023-06-10T05:26:11;101219.91;;;17.77;nan
56420;BME280;42323;52.170;7.538;2023-06-10T05:28:38;101222.13;;;17.80;nan
56420;BME280;42323;52.170;7.538;2023-06-10T05:31:04;101209.50;;;17.75;nan
56420;BME280;42323;52.170;7.538;2023-06-10T05:33:31;101221.69;;;17.90;nan
56420;BME280;42323;52.170;7.538;2023-06-10T05:35:57;101222.50;;;17.97;nan
56420;BME280;42323;52.170;7.538;2023-06-10T05:38:24;101232.22;;;18.10;nan
56420;BME280;42323;52.170;7.538;2023-06-10T05:40:51;101232.19;;;18.16;nan
56420;BME280;42323;52.170;7.538;2023-06-10T05:43:18;101230.97;;;18.12;nan
56420;BME280;42323;52.170;7.538;2023-06-10T05:45:44;101237.06;;;18.19;nan
56420;BME280;42323;52.170;7.538;2023-06-10T05:48:11;101239.50;;;18.21;nan
56420;BME280;42323;52.170;7.538;2023-06-10T05:50:37;101230.97;;;18.19;nan
56420;BME280;42323;52.170;7.538;2023-06-10T05:53:06;101228.25;;;18.25;nan
56420;BME280;42323;52.170;7.538;2023-06-10T05:55:34;101226.19;;;18.34;nan
56420;BME280;42323;52.170;7.538;2023-06-10T05:58:01;101227.59;;;18.37;nan
56420;BME280;42323;52.170;7.538;2023-06-10T06:00:27;101226.09;;;18.47;nan
56420;BME280;42323;52.170;7.538;2023-06-10T06:02:54;101226.06;;;18.54;nan
56420;BME280;42323;52.170;7.538;2023-06-10T06:05:21;101224.81;;;18.56;nan
56420;BME280;42323;52.170;7.538;2023-06-10T06:07:47;101220.75;;;18.54;nan
56420;BME280;42323;52.170;7.538;2023-06-10T06:10:14;101218.28;;;18.59;nan
56420;BME280;42323;52.170;7.538;2023-06-10T06:12:41;101225.41;;;18.65;nan
56420;BME280;42323;52.170;7.538;2023-06-10T06:15:07;101228.41;;;18.75;nan
56420;BME280;42323;52.170;7.538;2023-06-10T06:17:35;101238.78;;;18.84;nan
56420;BME280;42323;52.170;7.538;2023-06-10T06:20:03;101226.31;;;18.84;nan
56420;BME280;42323;52.170;7.538;2023-06-10T06:22:29;101234.81;;;18.93;nan
56420;BME280;42323;52.170;7.538;2023-06-10T06:24:56;101228.84;;;18.97;nan
56420;BME280;42323;52.170;7.538;2023-06-10T06:27:23;101231.09;;;19.00;nan
56420;BME280;42323;52.170;7.538;2023-06-10T06:29:49;101242.19;;;19.16;nan
56420;BME280;42323;52.170;7.538;2023-06-10T06:32:17;101237.47;;;19.18;nan
56420;BME280;42323;52.170;7.538;2023-06-10T06:34:43;101238.81;;;19.27;nan
56420;BME280;42323;52.170;7.538;2023-06-10T06:37:10;101233.09;;;19.30;nan
56420;BME280;42323;52.170;7.538;2023-06-10T06:39:36;101249.72;;;19.44;nan
56420;BME280;42323;52.170;7.538;2023-06-10T06:42:03;101239.72;;;19.39;nan
56420;BME280;42323;52.170;7.538;2023-06-10T06:44:30;101224.97;;;19.43;nan
56420;BME280;42323;52.170;7.538;2023-06-10T06:46:56;101229.13;;;19.58;nan
56420;BME280;42323;52.170;7.538;2023-06-10T06:49:23;101237.94;;;19.76;nan
56420;BME280;42323;52.170;7.538;2023-06-10T06:51:50;101229.56;;;19.73;nan
56420;BME280;42323;52.170;7.538;2023-06-10T06:54:16;101234.53;;;19.88;nan
56420;BME280;42323;52.170;7.538;2023-06-10T06:56:43;101237.56;;;19.91;nan
56420;BME280;42323;52.170;7.538;2023-06-10T06:59:09;101248.72;;;20.00;nan
56420;BME280;42323;52.170;7.538;2023-06-10T07:01:36;101222.19;;;19.93;nan
56420;BME280;42323;52.170;7.538;2023-06-10T07:04:05;101226.81;;;20.16;nan
56420;BME280;42323;52.170;7.538;2023-06-10T07:06:32;101252.94;;;20.38;nan
56420;BME280;42323;52.170;7.538;2023-06-10T07:09:00;101239.19;;;20.41;nan
56420;BME280;42323;52.170;7.538;2023-06-10T07:11:26;101229.69;;;20.45;nan
56420;BME280;42323;52.170;7.538;2023-06-10T07:13:53;101227.44;;;20.48;nan
56420;BME280;42323;52.170;7.538;2023-06-10T07:16:20;101241.72;;;20.66;nan
56420;BME280;42323;52.170;7.538;2023-06-10T07:18:47;101247.19;;;20.71;nan
56420;BME280;42323;52.170;7.538;2023-06-10T07:21:14;101224.50;;;20.68;nan
56420;BME280;42323;52.170;7.538;2023-06-10T07:23:44;101233.66;;;20.84;nan
56420;BME280;42323;52.170;7.538;2023-06-10T07:26:11;101241.22;;;20.99;nan
56420;BME280;42323;52.170;7.538;2023-06-10T07:28:42;101237.88;;;21.03;nan
56420;BME280;42323;52.170;7.538;2023-06-10T07:31:09;101242.97;;;21.17;nan
56420;BME280;42323;52.170;7.538;2023-06-10T07:33:37;101245.28;;;21.25;nan
56420;BME280;42323;52.170;7.538;2023-06-10T07:36:06;101250.31;;;21.33;nan
56420;BME280;42323;52.170;7.538;2023-06-10T07:38:32;101247.41;;;21.46;nan
56420;BME280;42323;52.170;7.538;2023-06-10T07:41:00;101238.72;;;21.51;nan
56420;BME280;42323;52.170;7.538;2023-06-10T07:43:27;101249.78;;;21.71;nan
56420;BME280;42323;52.170;7.538;2023-06-10T07:45:53;101250.94;;;21.75;nan
56420;BME280;42323;52.170;7.538;2023-06-10T07:48:20;101195.69;;;21.47;nan
56420;BME280;42323;52.170;7.538;2023-06-10T07:50:47;101223.47;;;21.75;nan
56420;BME280;42323;52.170;7.538;2023-06-10T07:53:13;101236.97;;;21.97;nan
56420;BME280;42323;52.170;7.538;2023-06-10T07:55:40;101241.22;;;22.10;nan
56420;BME280;42323;52.170;7.538;2023-06-10T07:58:06;101236.69;;;22.10;nan
56420;BME280;42323;52.170;7.538;2023-06-10T08:00:33;101234.03;;;22.22;nan
56420;BME280;42323;52.170;7.538;2023-06-10T08:02:59;101239.97;;;22.41;nan
56420;BME280;42323;52.170;7.538;2023-06-10T08:05:26;101234.41;;;22.42;nan
56420;BME280;42323;52.170;7.538;2023-06-10T08:07:53;101215.72;;;22.42;nan
56420;BME280;42323;52.170;7.538;2023-06-10T08:10:20;101239.59;;;22.66;nan
56420;BME280;42323;52.170;7.538;2023-06-10T08:12:46;101242.63;;;22.69;nan
56420;BME280;42323;52.170;7.538;2023-06-10T08:15:13;101235.50;;;22.75;nan
56420;BME280;42323;52.170;7.538;2023-06-10T08:17:40;101227.50;;;22.92;nan
56420;BME280;42323;52.170;7.538;2023-06-10T08:20:06;101229.03;;;23.04;nan
56420;BME280;42323;52.170;7.538;2023-06-10T08:22:33;101238.19;;;23.25;nan
56420;BME280;42323;52.170;7.538;2023-06-10T08:25:00;101247.66;;;23.33;nan
56420;BME280;42323;52.170;7.538;2023-06-10T08:27:26;101243.50;;;23.42;nan
56420;BME280;42323;52.170;7.538;2023-06-10T08:29:53;101229.50;;;23.35;nan
56420;BME280;42323;52.170;7.538;2023-06-10T08:32:20;101237.78;;;23.56;nan
56420;BME280;42323;52.170;7.538;2023-06-10T08:34:47;101239.59;;;23.67;nan
56420;BME280;42323;52.170;7.538;2023-06-10T08:37:13;101248.06;;;23.81;nan
56420;BME280;42323;52.170;7.538;2023-06-10T08:39:40;101235.38;;;23.93;nan
56420;BME280;42323;52.170;7.538;2023-06-10T08:42:23;101243.09;;;24.16;nan
56420;BME280;42323;52.170;7.538;2023-06-10T08:44:56;101230.56;;;24.22;nan
56420;BME280;42323;52.170;7.538;2023-06-10T08:47:24;101233.19;;;24.39;nan
56420;BME280;42323;52.170;7.538;2023-06-10T08:49:52;101232.50;;;24.48;nan
56420;BME280;42323;52.170;7.538;2023-06-10T08:52:20;101230.50;;;24.66;nan
56420;BME280;42323;52.170;7.538;2023-06-10T08:55:10;101233.34;;;24.86;nan
56420;BME280;42323;52.170;7.538;2023-06-10T08:57:37;101226.69;;;24.94;nan
56420;BME280;42323;52.170;7.538;2023-06-10T09:00:06;101233.81;;;25.10;nan
56420;BME280;42323;52.170;7.538;2023-06-10T09:02:33;101208.13;;;25.19;nan
56420;BME280;42323;52.170;7.538;2023-06-10T09:05:02;101226.25;;;25.44;nan
56420;BME280;42323;52.170;7.538;2023-06-10T09:07:32;101227.16;;;25.65;nan
56420;BME280;42323;52.170;7.538;2023-06-10T09:10:00;101230.72;;;25.81;nan
56420;BME280;42323;52.170;7.538;2023-06-10T09:12:29;101220.28;;;25.95;nan
56420;BME280;42323;52.170;7.538;2023-06-10T09:14:56;101185.63;;;25.83;nan
56420;BME280;42323;52.170;7.538;2023-06-10T09:17:26;101147.75;;;25.80;nan
56420;BME280;42323;52.170;7.538;2023-06-10T09:19:59;101150.44;;;25.95;nan
56420;BME280;42323;52.170;7.538;2023-06-10T09:22:27;101195.91;;;26.32;nan
56420;BME280;42323;52.170;7.538;2023-06-10T09:25:07;101236.28;;;26.63;nan
56420;BME280;42323;52.170;7.538;2023-06-10T09:27:46;101207.50;;;26.68;nan
56420;BME280;42323;52.170;7.538;2023-06-10T09:30:32;101224.44;;;26.89;nan
56420;BME280;42323;52.170;7.538;2023-06-10T09:33:01;101211.00;;;26.94;nan
56420;BME280;42323;52.170;7.538;2023-06-10T09:35:30;101206.16;;;26.91;nan
56420;BME280;42323;52.170;7.538;2023-06-10T09:37:58;101213.41;;;27.06;nan
56420;BME280;42323;52.170;7.538;2023-06-10T09:40:25;101204.50;;;27.26;nan
56420;BME280;42323;52.170;7.538;2023-06-10T09:42:57;101215.75;;;27.43;nan
56420;BME280;42323;52.170;7.538;2023-06-10T09:45:29;101216.75;;;27.63;nan
56420;BME280;42323;52.170;7.538;2023-06-10T09:47:56;101220.50;;;27.77;nan
56420;BME280;42323;52.170;7.538;2023-06-10T09:50:23;101216.59;;;28.04;nan
56420;BME280;42323;52.170;7.538;2023-06-10T09:52:50;101214.78;;;28.28;nan
56420;BME280;42323;52.170;7.538;2023-06-10T09:55:18;101220.03;;;28.54;nan
56420;BME280;42323;52.170;7.538;2023-06-10T09:57:54;101195.84;;;28.78;nan
56420;BME280;42323;52.170;7.538;2023-06-10T10:00:25;101151.25;;;28.85;nan
56420;BME280;42323;52.170;7.538;2023-06-10T10:02:58;101169.94;;;29.30;nan
56420;BME280;42323;52.170;7.538;2023-06-10T10:05:27;101228.59;;;30.15;nan
56420;BME280;42323;52.170;7.538;2023-06-10T10:07:54;101208.75;;;30.38;nan
56420;BME280;42323;52.170;7.538;2023-06-10T10:10:23;101223.13;;;30.85;nan
56420;BME280;42323;52.170;7.538;2023-06-10T10:12:56;101224.91;;;31.22;nan
56420;BME280;42323;52.170;7.538;2023-06-10T10:15:25;101220.34;;;31.73;nan
56420;BME280;42323;52.170;7.538;2023-06-10T10:18:09;101218.50;;;32.10;nan
56420;BME280;42323;52.170;7.538;2023-06-10T10:20:47;101219.09;;;32.43;nan
56420;BME280;42323;52.170;7.538;2023-06-10T10:23:21;101216.41;;;32.74;nan
56420;BME280;42323;52.170;7.538;2023-06-10T10:25:52;101214.03;;;33.04;nan
56420;BME280;42323;52.170;7.538;2023-06-10T10:28:21;101219.66;;;33.56;nan
56420;BME280;42323;52.170;7.538;2023-06-10T10:30:53;101207.19;;;34.24;nan
56420;BME280;42323;52.170;7.538;2023-06-10T10:33:31;101218.38;;;34.66;nan
56420;BME280;42323;52.170;7.538;2023-06-10T10:36:00;101193.56;;;34.67;nan
56420;BME280;42323;52.170;7.538;2023-06-10T10:38:28;101209.00;;;34.84;nan
56420;BME280;42323;52.170;7.538;2023-06-10T10:40:55;101179.44;;;35.12;nan
56420;BME280;42323;52.170;7.538;2023-06-10T10:43:27;101204.59;;;35.48;nan
56420;BME280;42323;52.170;7.538;2023-06-10T10:46:00;101168.34;;;35.47;nan
56420;BME280;42323;52.170;7.538;2023-06-10T10:48:35;101186.78;;;35.71;nan
56420;BME280;42323;52.170;7.538;2023-06-10T10:51:02;101205.41;;;35.90;nan
56420;BME280;42323;52.170;7.538;2023-06-10T10:53:29;101194.72;;;36.06;nan
56420;BME280;42323;52.170;7.538;2023-06-10T10:56:06;101206.81;;;36.50;nan
56420;BME280;42323;52.170;7.538;2023-06-10T10:58:38;101187.66;;;36.83;nan
56420;BME280;42323;52.170;7.538;2023-06-10T11:01:12;101193.81;;;37.05;nan
56420;BME280;42323;52.170;7.538;2023-06-10T11:03:46;101177.97;;;37.23;nan
56420;BME280;42323;52.170;7.538;2023-06-10T11:06:17;101182.16;;;37.57;nan
56420;BME280;42323;52.170;7.538;2023-06-10T11:11:24;101184.09;;;37.97;nan
56420;BME280;42323;52.170;7.538;2023-06-10T11:16:28;101149.22;;;37.94;nan
56420;BME280;42323;52.170;7.538;2023-06-10T11:18:57;101157.09;;;38.11;nan
56420;BME280;42323;52.170;7.538;2023-06-10T11:21:24;101153.31;;;38.15;nan
56420;BME280;42323;52.170;7.538;2023-06-10T11:23:58;101183.97;;;38.49;nan
56420;BME280;42323;52.170;7.538;2023-06-10T11:31:40;101141.38;;;38.52;nan
56420;BME280;42323;52.170;7.538;2023-06-10T11:34:08;101079.53;;;37.91;nan
56420;BME280;42323;52.170;7.538;2023-06-10T11:36:40;101124.25;;;38.11;nan
56420;BME280;42323;52.170;7.538;2023-06-10T11:39:09;101149.75;;;37.99;nan
56420;BME280;42323;52.170;7.538;2023-06-10T11:41:38;101068.53;;;37.75;nan
56420;BME280;42323;52.170;7.538;2023-06-10T11:44:13;101167.25;;;38.70;nan
56420;BME280;42323;52.170;7.538;2023-06-10T11:46:44;101169.84;;;38.79;nan
56420;BME280;42323;52.170;7.538;2023-06-10T11:49:12;101146.16;;;38.86;nan
56420;BME280;42323;52.170;7.538;2023-06-10T11:51:39;101174.00;;;39.39;nan
56420;BME280;42323;52.170;7.538;2023-06-10T11:54:10;101161.53;;;38.91;nan
56420;BME280;42323;52.170;7.538;2023-06-10T11:56:36;101141.38;;;38.52;nan
56420;BME280;42323;52.170;7.538;2023-06-10T11:59:05;101154.53;;;38.62;nan
56420;BME280;42323;52.170;7.538;2023-06-10T12:01:36;101164.84;;;38.69;nan
56420;BME280;42323;52.170;7.538;2023-06-10T12:04:10;101141.84;;;38.73;nan
56420;BME280;42323;52.170;7.538;2023-06-10T12:12:01;101155.28;;;39.10;nan
56420;BME280;42323;52.170;7.538;2023-06-10T12:14:57;101157.81;;;39.54;nan
56420;BME280;42323;52.170;7.538;2023-06-10T12:20:00;101140.63;;;39.57;nan
56420;BME280;42323;52.170;7.538;2023-06-10T12:22:35;101148.06;;;39.37;nan
56420;BME280;42323;52.170;7.538;2023-06-10T12:25:04;101136.69;;;39.19;nan
56420;BME280;42323;52.170;7.538;2023-06-10T12:27:33;101133.34;;;39.26;nan
56420;BME280;42323;52.170;7.538;2023-06-10T12:30:02;101146.81;;;39.70;nan
56420;BME280;42323;52.170;7.538;2023-06-10T12:32:41;101121.75;;;39.94;nan
56420;BME280;42323;52.170;7.538;2023-06-10T12:35:10;101134.88;;;40.24;nan
56420;BME280;42323;52.170;7.538;2023-06-10T12:37:40;101086.13;;;39.98;nan
56420;BME280;42323;52.170;7.538;2023-06-10T12:40:10;101073.16;;;39.95;nan
56420;BME280;42323;52.170;7.538;2023-06-10T12:42:38;101134.69;;;39.94;nan
56420;BME280;42323;52.170;7.538;2023-06-10T12:45:05;101110.59;;;39.64;nan
56420;BME280;42323;52.170;7.538;2023-06-10T12:47:38;101111.25;;;39.57;nan
56420;BME280;42323;52.170;7.538;2023-06-10T12:50:07;101079.28;;;39.26;nan
56420;BME280;42323;52.170;7.538;2023-06-10T12:52:34;101063.25;;;39.48;nan
56420;BME280;42323;52.170;7.538;2023-06-10T12:55:01;101111.56;;;40.14;nan
56420;BME280;42323;52.170;7.538;2023-06-10T12:57:28;101109.66;;;40.18;nan
56420;BME280;42323;52.170;7.538;2023-06-10T12:59:56;101089.22;;;40.16;nan
56420;BME280;42323;52.170;7.538;2023-06-10T13:02:29;101118.44;;;40.50;nan
56420;BME280;42323;52.170;7.538;2023-06-10T13:04:56;101102.16;;;40.61;nan
56420;BME280;42323;52.170;7.538;2023-06-10T13:07:23;101119.38;;;40.84;nan
56420;BME280;42323;52.170;7.538;2023-06-10T13:09:50;101121.59;;;41.02;nan
56420;BME280;42323;52.170;7.538;2023-06-10T13:12:16;101109.97;;;41.12;nan
56420;BME280;42323;52.170;7.538;2023-06-10T13:14:50;101132.88;;;41.20;nan
56420;BME280;42323;52.170;7.538;2023-06-10T13:17:20;101097.38;;;40.84;nan
56420;BME280;42323;52.170;7.538;2023-06-10T13:19:49;101080.09;;;40.84;nan
56420;BME280;42323;52.170;7.538;2023-06-10T13:22:16;101087.53;;;41.10;nan
56420;BME280;42323;52.170;7.538;2023-06-10T13:24:46;101074.53;;;41.07;nan
56420;BME280;42323;52.170;7.538;2023-06-10T13:27:28;101085.25;;;41.46;nan
56420;BME280;42323;52.170;7.538;2023-06-10T13:30:10;101094.50;;;41.64;nan
56420;BME280;42323;52.170;7.538;2023-06-10T13:32:37;101094.00;;;41.55;nan
56420;BME280;42323;52.170;7.538;2023-06-10T13:35:05;101115.44;;;41.72;nan
56420;BME280;42323;52.170;7.538;2023-06-10T13:37:32;101054.56;;;41.44;nan
56420;BME280;42323;52.170;7.538;2023-06-10T13:40:00;101090.00;;;41.49;nan
56420;BME280;42323;52.170;7.538;2023-06-10T13:42:27;101089.22;;;41.85;nan
56420;BME280;42323;52.170;7.538;2023-06-10T13:44:55;101100.66;;;42.28;nan